Time;durP1;ratioP1;P1;durP2;ratioP2;P2;SDS_P1;SDS_P2;PMS_P1;PMS_P2;Temp;Humidity;BMP_temperature;BMP_pressure;BME280_temperature;BME280_humidity;BME280_pressure;Samples;Min_cycle;Max_cycle;Signal;HPM_P1;HPM_P2
2023/05/22 00:01:50;;;;;;;0.00;0.00;;;;;;;;;;5097795;28;20201;-77
2023/05/22 00:04:20;;;;;;;0.00;0.00;;;;;;;;;;5101194;28;20239;-76
2023/05/22 00:06:49;;;;;;;0.00;0.00;;;;;;;;;;5117939;28;20201;-77
2023/05/22 00:09:17;;;;;;;0.00;0.00;;;;;;;;;;5117637;28;20209;-77
2023/05/22 00:11:46;;;;;;;0.00;0.00;;;;;;;;;;5118487;28;20204;-77
2023/05/22 00:14:14;;;;;;;0.00;0.00;;;;;;;;;;5106858;28;20240;-77
2023/05/22 00:16:43;;;;;;;0.00;0.00;;;;;;;;;;5116404;28;20224;-77
2023/05/22 00:19:15;;;;;;;0.00;0.00;;;;;;;;;;5117629;28;20205;-77
2023/05/22 00:21:45;;;;;;;0.00;0.00;;;;;;;;;;5112876;28;20201;-76
2023/05/22 00:24:14;;;;;;;0.00;0.00;;;;;;;;;;5095650;28;20232;-78
2023/05/22 00:26:42;;;;;;;0.00;0.00;;;;;;;;;;5096969;28;20198;-77
2023/05/22 00:29:11;;;;;;;0.00;0.00;;;;;;;;;;5098446;28;20206;-76
2023/05/22 00:31:39;;;;;;;0.00;0.00;;;;;;;;;;5117455;28;20207;-77
2023/05/22 00:34:08;;;;;;;0.00;0.00;;;;;;;;;;5116639;28;20224;-77
2023/05/22 00:36:37;;;;;;;0.00;0.00;;;;;;;;;;5117864;28;20718;-77
2023/05/22 00:39:06;;;;;;;0.00;0.00;;;;;;;;;;5117918;28;20191;-76
2023/05/22 00:41:34;;;;;;;0.00;0.00;;;;;;;;;;5097023;28;20202;-76
2023/05/22 00:44:03;;;;;;;0.00;0.00;;;;;;;;;;5097061;28;20230;-77
2023/05/22 00:46:31;;;;;;;0.00;0.00;;;;;;;;;;5097036;28;20201;-77
2023/05/22 00:49:00;;;;;;;0.00;0.00;;;;;;;;;;5097543;28;20201;-77
2023/05/22 00:51:29;;;;;;;0.00;0.00;;;;;;;;;;5097148;28;20210;-77
2023/05/22 00:53:59;;;;;;;0.00;0.00;;;;;;;;;;5096927;28;20218;-77
2023/05/22 00:56:28;;;;;;;0.00;0.00;;;;;;;;;;5116425;28;20311;-77
2023/05/22 00:58:56;;;;;;;0.00;0.00;;;;;;;;;;5117402;28;20204;-77
2023/05/22 01:01:32;;;;;;;0.00;0.00;;;;;;;;;;5116993;28;20253;-77
2023/05/22 01:04:02;;;;;;;0.00;0.00;;;;;;;;;;5117873;28;20738;-77
2023/05/22 01:06:31;;;;;;;0.00;0.00;;;;;;;;;;5096492;28;20193;-77
2023/05/22 01:09:02;;;;;;;0.00;0.00;;;;;;;;;;5096601;28;20212;-77
2023/05/22 01:11:33;;;;;;;0.00;0.00;;;;;;;;;;5102402;28;20193;-77
2023/05/22 01:14:07;;;;;;;0.00;0.00;;;;;;;;;;5116144;28;20228;-77
2023/05/22 01:16:38;;;;;;;0.00;0.00;;;;;;;;;;5096325;28;20212;-76
2023/05/22 01:19:14;;;;;;;0.00;0.00;;;;;;;;;;5096563;28;20627;-77
2023/05/22 01:21:48;;;;;;;0.00;0.00;;;;;;;;;;5096263;28;20259;-77
2023/05/22 01:24:40;;;;;;;0.00;0.00;;;;;;;;;;5095998;28;20690;-77
2023/05/22 01:27:24;;;;;;;0.00;0.00;;;;;;;;;;5071446;28;20201;-77
2023/05/22 01:29:59;;;;;;;0.00;0.00;;;;;;;;;;5095316;28;20190;-77
2023/05/22 01:32:29;;;;;;;0.00;0.00;;;;;;;;;;5095114;28;20204;-77
2023/05/22 01:35:00;;;;;;;0.00;0.00;;;;;;;;;;5095503;28;20221;-77
2023/05/22 01:37:29;;;;;;;0.00;0.00;;;;;;;;;;5098316;28;20221;-77
2023/05/22 01:39:58;;;;;;;0.00;0.00;;;;;;;;;;5100502;28;20620;-77
2023/05/22 01:42:27;;;;;;;0.00;0.00;;;;;;;;;;5100191;28;20658;-77
2023/05/22 01:44:55;;;;;;;0.00;0.00;;;;;;;;;;5105546;28;20694;-77
2023/05/22 01:47:23;;;;;;;0.00;0.00;;;;;;;;;;5120790;28;20685;-77
2023/05/22 01:49:54;;;;;;;0.00;0.00;;;;;;;;;;5117519;27;20243;-77
2023/05/22 01:52:25;;;;;;;0.00;0.00;;;;;;;;;;5100458;28;20182;-78
2023/05/22 01:54:57;;;;;;;0.00;0.00;;;;;;;;;;5098955;28;20585;-77
2023/05/22 01:57:28;;;;;;;0.00;0.00;;;;;;;;;;5100944;28;20640;-77
2023/05/22 02:00:06;;;;;;;0.00;0.00;;;;;;;;;;5120314;28;20322;-77
2023/05/22 02:02:36;;;;;;;0.00;0.00;;;;;;;;;;5099284;28;20210;-77
2023/05/22 02:05:08;;;;;;;0.00;0.00;;;;;;;;;;5099830;28;20209;-75
2023/05/22 02:07:38;;;;;;;0.00;0.00;;;;;;;;;;5100867;28;20182;-77
2023/05/22 02:10:07;;;;;;;0.00;0.00;;;;;;;;;;5101447;28;20662;-77
2023/05/22 02:12:36;;;;;;;0.00;0.00;;;;;;;;;;5100460;28;20601;-77
2023/05/22 02:15:06;;;;;;;0.00;0.00;;;;;;;;;;5100622;28;20352;-77
2023/05/22 02:17:39;;;;;;;0.00;0.00;;;;;;;;;;5099703;28;20233;-76
2023/05/22 02:20:13;;;;;;;0.00;0.00;;;;;;;;;;5100798;28;20197;-77
2023/05/22 02:22:43;;;;;;;0.00;0.00;;;;;;;;;;5118635;28;20201;-77
2023/05/22 02:25:13;;;;;;;0.00;0.00;;;;;;;;;;5115538;28;20230;-77
2023/05/22 02:27:42;;;;;;;0.00;0.00;;;;;;;;;;5098759;28;20218;-77
2023/05/22 02:30:11;;;;;;;0.00;0.00;;;;;;;;;;5101423;28;20280;-77
2023/05/22 02:32:40;;;;;;;0.00;0.00;;;;;;;;;;5119683;28;20208;-77
2023/05/22 02:35:10;;;;;;;0.00;0.00;;;;;;;;;;5116043;28;20225;-77
2023/05/22 02:37:39;;;;;;;0.00;0.00;;;;;;;;;;5099752;28;20228;-77
2023/05/22 02:40:09;;;;;;;0.00;0.00;;;;;;;;;;5100481;28;20265;-75
2023/05/22 02:42:38;;;;;;;0.00;0.00;;;;;;;;;;5119008;27;20201;-76
2023/05/22 02:45:07;;;;;;;0.00;0.00;;;;;;;;;;5117458;27;20589;-77
2023/05/22 02:47:35;;;;;;;0.00;0.00;;;;;;;;;;5098655;28;20193;-77
2023/05/22 02:50:04;;;;;;;0.00;0.00;;;;;;;;;;5100448;28;20292;-77
2023/05/22 02:52:35;;;;;;;0.00;0.00;;;;;;;;;;5119343;28;20201;-77
2023/05/22 02:55:04;;;;;;;0.00;0.00;;;;;;;;;;5106377;28;20221;-77
2023/05/22 02:57:33;;;;;;;0.00;0.00;;;;;;;;;;5102592;28;20216;-77
2023/05/22 03:00:02;;;;;;;0.00;0.00;;;;;;;;;;5100008;28;20198;-77
2023/05/22 03:02:31;;;;;;;0.00;0.00;;;;;;;;;;5113906;28;20201;-77
2023/05/22 03:04:59;;;;;;;0.00;0.00;;;;;;;;;;5118948;28;20231;-77
2023/05/22 03:07:28;;;;;;;0.00;0.00;;;;;;;;;;5118326;28;20201;-76
2023/05/22 03:09:58;;;;;;;0.00;0.00;;;;;;;;;;5119291;28;20203;-77
2023/05/22 03:12:27;;;;;;;0.00;0.00;;;;;;;;;;5118617;28;20685;-77
2023/05/22 03:14:55;;;;;;;0.00;0.00;;;;;;;;;;5118383;28;20228;-77
2023/05/22 03:17:24;;;;;;;0.00;0.00;;;;;;;;;;5107866;28;20221;-77
2023/05/22 03:19:52;;;;;;;0.00;0.00;;;;;;;;;;5117439;28;20201;-76
2023/05/22 03:22:21;;;;;;;0.00;0.00;;;;;;;;;;5103237;28;20553;-76
2023/05/22 03:24:51;;;;;;;0.00;0.00;;;;;;;;;;5098022;28;20586;-77
2023/05/22 03:27:21;;;;;;;0.00;0.00;;;;;;;;;;5106728;28;20193;-77
2023/05/22 03:29:49;;;;;;;0.00;0.00;;;;;;;;;;5105088;28;20217;-77
2023/05/22 03:32:17;;;;;;;0.00;0.00;;;;;;;;;;5114369;28;20250;-77
2023/05/22 03:34:46;;;;;;;0.00;0.00;;;;;;;;;;5113081;28;20220;-77
2023/05/22 03:37:14;;;;;;;0.00;0.00;;;;;;;;;;5117351;28;20213;-76
2023/05/22 03:39:43;;;;;;;0.00;0.00;;;;;;;;;;5106633;27;20590;-77
2023/05/22 03:42:12;;;;;;;0.00;0.00;;;;;;;;;;5097459;28;20654;-77
2023/05/22 03:44:42;;;;;;;0.00;0.00;;;;;;;;;;5098895;28;20300;-77
2023/05/22 03:47:10;;;;;;;0.00;0.00;;;;;;;;;;5095279;28;20201;-75
2023/05/22 03:49:39;;;;;;;0.00;0.00;;;;;;;;;;5096922;28;20229;-77
2023/05/22 03:52:10;;;;;;;0.00;0.00;;;;;;;;;;5095050;28;20202;-77
2023/05/22 03:54:39;;;;;;;0.00;0.00;;;;;;;;;;5095819;28;20229;-77
2023/05/22 03:57:07;;;;;;;0.00;0.00;;;;;;;;;;5095616;28;20202;-77
2023/05/22 03:59:35;;;;;;;0.00;0.00;;;;;;;;;;5097405;28;20574;-77
2023/05/22 04:02:06;;;;;;;0.00;0.00;;;;;;;;;;5097391;28;20198;-77
2023/05/22 04:04:37;;;;;;;0.00;0.00;;;;;;;;;;5103020;28;20225;-76
2023/05/22 04:07:07;;;;;;;0.00;0.00;;;;;;;;;;5096128;28;20206;-76
2023/05/22 04:09:36;;;;;;;0.00;0.00;;;;;;;;;;5107231;28;20323;-77
2023/05/22 04:12:04;;;;;;;0.00;0.00;;;;;;;;;;5116276;28;20213;-76
2023/05/22 04:14:33;;;;;;;0.00;0.00;;;;;;;;;;5114425;28;20224;-76
2023/05/22 04:17:01;;;;;;;0.00;0.00;;;;;;;;;;5100263;28;20252;-76
2023/05/22 04:19:31;;;;;;;0.00;0.00;;;;;;;;;;5098853;28;20697;-77
2023/05/22 04:21:59;;;;;;;0.00;0.00;;;;;;;;;;5097150;28;20202;-77
2023/05/22 04:24:28;;;;;;;0.00;0.00;;;;;;;;;;5096615;28;20592;-77
2023/05/22 04:26:58;;;;;;;0.00;0.00;;;;;;;;;;5108757;28;20209;-77
2023/05/22 04:29:27;;;;;;;0.00;0.00;;;;;;;;;;5096566;28;20196;-77
2023/05/22 04:31:56;;;;;;;0.00;0.00;;;;;;;;;;5097125;28;20216;-77
2023/05/22 04:34:24;;;;;;;0.00;0.00;;;;;;;;;;5117771;28;20713;-77
2023/05/22 04:36:55;;;;;;;0.00;0.00;;;;;;;;;;5117679;28;20223;-77
2023/05/22 04:39:25;;;;;;;0.00;0.00;;;;;;;;;;5117669;28;20591;-77
2023/05/22 04:41:53;;;;;;;0.00;0.00;;;;;;;;;;5117235;28;20192;-76
2023/05/22 04:44:22;;;;;;;0.00;0.00;;;;;;;;;;5097657;28;20221;-77
2023/05/22 04:46:51;;;;;;;0.00;0.00;;;;;;;;;;5097604;28;20557;-77
2023/05/22 04:49:20;;;;;;;0.00;0.00;;;;;;;;;;5097082;28;20549;-76
2023/05/22 04:51:48;;;;;;;0.00;0.00;;;;;;;;;;5097235;28;20202;-76
2023/05/22 04:54:18;;;;;;;0.00;0.00;;;;;;;;;;5114653;28;20225;-76
2023/05/22 04:56:46;;;;;;;0.00;0.00;;;;;;;;;;5111507;28;20204;-78
2023/05/22 04:59:16;;;;;;;0.00;0.00;;;;;;;;;;5096666;28;20221;-77
2023/05/22 05:01:46;;;;;;;0.00;0.00;;;;;;;;;;5113326;28;20197;-77
2023/05/22 05:04:15;;;;;;;0.00;0.00;;;;;;;;;;5116930;28;20225;-77
2023/05/22 05:06:43;;;;;;;0.00;0.00;;;;;;;;;;5099119;28;20197;-77
2023/05/22 05:09:12;;;;;;;0.00;0.00;;;;;;;;;;5096344;28;20212;-77
2023/05/22 05:11:42;;;;;;;0.00;0.00;;;;;;;;;;5098963;28;20205;-77
2023/05/22 05:14:10;;;;;;;0.00;0.00;;;;;;;;;;5100651;28;20346;-77
2023/05/22 05:16:38;;;;;;;0.00;0.00;;;;;;;;;;5101215;28;20197;-77
2023/05/22 05:19:07;;;;;;;0.00;0.00;;;;;;;;;;5100320;28;20267;-77
2023/05/22 05:21:36;;;;;;;0.00;0.00;;;;;;;;;;5099872;28;20204;-78
2023/05/22 05:24:04;;;;;;;0.00;0.00;;;;;;;;;;5100183;28;20230;-77
2023/05/22 05:26:33;;;;;;;0.00;0.00;;;;;;;;;;5099320;28;20217;-77
2023/05/22 05:29:02;;;;;;;0.00;0.00;;;;;;;;;;5099757;28;20201;-77
2023/05/22 05:31:31;;;;;;;0.00;0.00;;;;;;;;;;5099431;28;20209;-77
2023/05/22 05:34:00;;;;;;;0.00;0.00;;;;;;;;;;5099399;28;20267;-77
2023/05/22 05:36:28;;;;;;;0.00;0.00;;;;;;;;;;5099581;28;20221;-78
2023/05/22 05:38:57;;;;;;;0.00;0.00;;;;;;;;;;5099697;28;20232;-77
2023/05/22 05:41:26;;;;;;;0.00;0.00;;;;;;;;;;5099658;28;20208;-76
2023/05/22 05:43:58;;;;;;;0.00;0.00;;;;;;;;;;5099202;28;20276;-77
2023/05/22 05:46:28;;;;;;;0.00;0.00;;;;;;;;;;5099717;28;20659;-78
2023/05/22 05:48:57;;;;;;;0.00;0.00;;;;;;;;;;5099373;28;20240;-77
2023/05/22 05:51:25;;;;;;;0.00;0.00;;;;;;;;;;5099596;28;20206;-77
2023/05/22 05:53:54;;;;;;;0.00;0.00;;;;;;;;;;5098750;28;20244;-76
2023/05/22 05:56:22;;;;;;;0.00;0.00;;;;;;;;;;5099498;28;20206;-77
2023/05/22 05:58:50;;;;;;;0.00;0.00;;;;;;;;;;5100910;28;20209;-78
2023/05/22 06:01:19;;;;;;;0.00;0.00;;;;;;;;;;5100214;28;20202;-78
2023/05/22 06:03:49;;;;;;;0.00;0.00;;;;;;;;;;5100920;28;20233;-78
2023/05/22 06:06:18;;;;;;;0.00;0.00;;;;;;;;;;5100918;28;20661;-78
2023/05/22 06:08:47;;;;;;;0.00;0.00;;;;;;;;;;5100835;28;20202;-77
2023/05/22 06:11:15;;;;;;;0.00;0.00;;;;;;;;;;5100272;28;20202;-78
2023/05/22 06:13:44;;;;;;;0.00;0.00;;;;;;;;;;5100760;28;20218;-78
2023/05/22 06:16:12;;;;;;;0.00;0.00;;;;;;;;;;5100206;28;20670;-78
2023/05/22 06:18:40;;;;;;;0.00;0.00;;;;;;;;;;5099494;28;20232;-77
2023/05/22 06:21:10;;;;;;;0.00;0.00;;;;;;;;;;5100670;28;20194;-77
2023/05/22 06:23:39;;;;;;;0.00;0.00;;;;;;;;;;5098877;28;20229;-75
2023/05/22 06:26:07;;;;;;;0.00;0.00;;;;;;;;;;5100372;28;20664;-78
2023/05/22 06:28:36;;;;;;;0.00;0.00;;;;;;;;;;5100325;28;20659;-78
2023/05/22 06:31:04;;;;;;;0.00;0.00;;;;;;;;;;5100658;28;20202;-78
2023/05/22 06:33:33;;;;;;;0.00;0.00;;;;;;;;;;5100091;28;20222;-78
2023/05/22 06:36:02;;;;;;;0.00;0.00;;;;;;;;;;5100303;28;20651;-78
2023/05/22 06:38:32;;;;;;;0.00;0.00;;;;;;;;;;5100243;28;20239;-77
2023/05/22 06:41:00;;;;;;;0.00;0.00;;;;;;;;;;5099918;28;20222;-78
2023/05/22 06:43:29;;;;;;;0.00;0.00;;;;;;;;;;5099688;28;20270;-78
2023/05/22 06:45:57;;;;;;;0.00;0.00;;;;;;;;;;5099920;28;20561;-78
2023/05/22 06:48:26;;;;;;;0.00;0.00;;;;;;;;;;5100662;28;20213;-76
2023/05/22 06:50:54;;;;;;;0.00;0.00;;;;;;;;;;5100117;28;20198;-78
2023/05/22 06:53:24;;;;;;;0.00;0.00;;;;;;;;;;5099371;28;20209;-78
2023/05/22 06:55:54;;;;;;;0.00;0.00;;;;;;;;;;5099936;28;20209;-78
2023/05/22 06:58:22;;;;;;;0.00;0.00;;;;;;;;;;5099265;28;20209;-78
2023/05/22 07:00:50;;;;;;;0.00;0.00;;;;;;;;;;5099221;28;20222;-78
2023/05/22 07:03:20;;;;;;;0.00;0.00;;;;;;;;;;5099222;28;20206;-78
2023/05/22 07:05:48;;;;;;;0.00;0.00;;;;;;;;;;5099979;28;20213;-78
2023/05/22 07:08:17;;;;;;;0.00;0.00;;;;;;;;;;5099828;28;20643;-79
2023/05/22 07:10:45;;;;;;;0.00;0.00;;;;;;;;;;5099533;28;20667;-79
2023/05/22 07:13:15;;;;;;;0.00;0.00;;;;;;;;;;5099084;28;20189;-79
2023/05/22 07:15:44;;;;;;;0.00;0.00;;;;;;;;;;5099171;28;20658;-79
2023/05/22 07:18:14;;;;;;;0.00;0.00;;;;;;;;;;5098939;28;20655;-78
2023/05/22 07:20:43;;;;;;;0.00;0.00;;;;;;;;;;5098807;28;20232;-78
2023/05/22 07:23:14;;;;;;;0.00;0.00;;;;;;;;;;5099012;28;20652;-78
2023/05/22 07:25:43;;;;;;;0.00;0.00;;;;;;;;;;5099640;28;20193;-79
2023/05/22 07:28:11;;;;;;;0.00;0.00;;;;;;;;;;5099092;28;20206;-78
2023/05/22 07:30:41;;;;;;;0.00;0.00;;;;;;;;;;5098420;28;20202;-78
2023/05/22 07:33:10;;;;;;;0.00;0.00;;;;;;;;;;5098636;28;20202;-78
2023/05/22 07:35:39;;;;;;;0.00;0.00;;;;;;;;;;5098309;28;20205;-78
2023/05/22 07:38:07;;;;;;;0.00;0.00;;;;;;;;;;5098455;28;20697;-78
2023/05/22 07:40:36;;;;;;;0.00;0.00;;;;;;;;;;5097950;28;20223;-77
2023/05/22 07:43:04;;;;;;;0.00;0.00;;;;;;;;;;5098004;28;20202;-78
2023/05/22 07:45:33;;;;;;;0.00;0.00;;;;;;;;;;5098371;28;20222;-78
2023/05/22 07:48:03;;;;;;;0.00;0.00;;;;;;;;;;5098029;28;20210;-79
2023/05/22 07:50:32;;;;;;;0.00;0.00;;;;;;;;;;5097614;28;20209;-78
2023/05/22 07:53:00;;;;;;;0.00;0.00;;;;;;;;;;5098198;28;20202;-78
2023/05/22 07:55:29;;;;;;;0.00;0.00;;;;;;;;;;5098179;28;20233;-79
2023/05/22 07:57:57;;;;;;;0.00;0.00;;;;;;;;;;5099640;28;20213;-79
2023/05/22 08:00:26;;;;;;;0.00;0.00;;;;;;;;;;5099753;28;20625;-79
2023/05/22 08:02:55;;;;;;;0.00;0.00;;;;;;;;;;5099301;28;20297;-79
2023/05/22 08:05:25;;;;;;;0.00;0.00;;;;;;;;;;5099668;28;20222;-79
2023/05/22 08:07:53;;;;;;;0.00;0.00;;;;;;;;;;5099214;28;20251;-78
2023/05/22 08:10:22;;;;;;;0.00;0.00;;;;;;;;;;5099087;28;20194;-78
2023/05/22 08:12:50;;;;;;;0.00;0.00;;;;;;;;;;5099267;28;20202;-79
2023/05/22 08:15:19;;;;;;;0.00;0.00;;;;;;;;;;5099259;28;20229;-79
2023/05/22 08:17:47;;;;;;;0.00;0.00;;;;;;;;;;5099062;28;20205;-79
2023/05/22 08:20:16;;;;;;;0.00;0.00;;;;;;;;;;5099057;28;20221;-78
2023/05/22 08:22:46;;;;;;;0.00;0.00;;;;;;;;;;5098913;28;20205;-79
2023/05/22 08:25:14;;;;;;;0.00;0.00;;;;;;;;;;5099161;28;20217;-79
2023/05/22 08:27:43;;;;;;;0.00;0.00;;;;;;;;;;5099731;28;20202;-79
2023/05/22 08:30:12;;;;;;;0.00;0.00;;;;;;;;;;5100216;28;20248;-79
2023/05/22 08:32:40;;;;;;;0.00;0.00;;;;;;;;;;5099344;28;20205;-79
2023/05/22 08:35:09;;;;;;;0.00;0.00;;;;;;;;;;5099045;28;20228;-79
2023/05/22 08:37:37;;;;;;;0.00;0.00;;;;;;;;;;5098583;28;20213;-79
2023/05/22 08:40:11;;;;;;;0.00;0.00;;;;;;;;;;5098672;28;20221;-80
2023/05/22 08:42:39;;;;;;;0.00;0.00;;;;;;;;;;5098201;28;20193;-80
2023/05/22 08:45:08;;;;;;;0.00;0.00;;;;;;;;;;5098189;28;20222;-80
2023/05/22 08:47:38;;;;;;;0.00;0.00;;;;;;;;;;5098721;28;20575;-80
2023/05/22 08:50:08;;;;;;;0.00;0.00;;;;;;;;;;5099173;28;20720;-80
2023/05/22 08:52:40;;;;;;;0.00;0.00;;;;;;;;;;5100344;28;20204;-79
2023/05/22 08:55:11;;;;;;;0.00;0.00;;;;;;;;;;5098603;28;20224;-78
2023/05/22 08:57:40;;;;;;;0.00;0.00;;;;;;;;;;5098965;28;20757;-79
2023/05/22 09:00:09;;;;;;;0.00;0.00;;;;;;;;;;5098138;28;20209;-79
2023/05/22 09:02:38;;;;;;;0.00;0.00;;;;;;;;;;5098554;28;20198;-80
2023/05/22 09:05:08;;;;;;;0.00;0.00;;;;;;;;;;5098767;28;20221;-79
2023/05/22 09:07:39;;;;;;;0.00;0.00;;;;;;;;;;5099426;28;20530;-79
2023/05/22 09:10:08;;;;;;;0.00;0.00;;;;;;;;;;5099568;28;20213;-79
2023/05/22 09:12:38;;;;;;;0.00;0.00;;;;;;;;;;5098647;28;20202;-79
2023/05/22 09:15:10;;;;;;;0.00;0.00;;;;;;;;;;5097881;28;20233;-79
2023/05/22 09:17:42;;;;;;;0.00;0.00;;;;;;;;;;5097503;28;20240;-79
2023/05/22 09:20:14;;;;;;;0.00;0.00;;;;;;;;;;5097670;28;20219;-80
2023/05/22 09:22:43;;;;;;;0.00;0.00;;;;;;;;;;5098147;28;20208;-79
2023/05/22 09:25:18;;;;;;;0.00;0.00;;;;;;;;;;5098706;28;20229;-79
2023/05/22 09:27:48;;;;;;;0.00;0.00;;;;;;;;;;5097783;28;20193;-79
2023/05/22 09:30:17;;;;;;;0.00;0.00;;;;;;;;;;5099859;28;20194;-79
2023/05/22 09:32:48;;;;;;;0.00;0.00;;;;;;;;;;5099454;28;20255;-79
2023/05/22 09:35:19;;;;;;;0.00;0.00;;;;;;;;;;5097950;28;20249;-79
2023/05/22 09:37:51;;;;;;;0.00;0.00;;;;;;;;;;5097246;28;20214;-79
2023/05/22 09:40:19;;;;;;;0.00;0.00;;;;;;;;;;5097364;28;20573;-80
2023/05/22 09:42:49;;;;;;;0.00;0.00;;;;;;;;;;5096987;28;20212;-79
2023/05/22 09:45:20;;;;;;;0.00;0.00;;;;;;;;;;5097529;28;20229;-80
2023/05/22 09:47:49;;;;;;;0.00;0.00;;;;;;;;;;5097901;28;20640;-80
2023/05/22 09:50:18;;;;;;;0.00;0.00;;;;;;;;;;5096995;28;20206;-80
2023/05/22 09:52:46;;;;;;;0.00;0.00;;;;;;;;;;5098295;28;20212;-80
2023/05/22 09:55:16;;;;;;;0.00;0.00;;;;;;;;;;5098031;28;20225;-79
2023/05/22 09:57:47;;;;;;;0.00;0.00;;;;;;;;;;5109885;28;20212;-79
2023/05/22 10:00:18;;;;;;;0.00;0.00;;;;;;;;;;5121108;28;20727;-79
2023/05/22 10:02:47;;;;;;;0.00;0.00;;;;;;;;;;5121349;28;20657;-79
2023/05/22 10:05:20;;;;;;;0.00;0.00;;;;;;;;;;5121070;28;20225;-79
2023/05/22 10:07:50;;;;;;;0.00;0.00;;;;;;;;;;5121783;28;20228;-79
2023/05/22 10:10:20;;;;;;;0.00;0.00;;;;;;;;;;5122204;28;20653;-79
2023/05/22 10:12:52;;;;;;;0.00;0.00;;;;;;;;;;5120992;28;20196;-79
2023/05/22 10:15:23;;;;;;;0.00;0.00;;;;;;;;;;5121051;28;20256;-79
2023/05/22 10:17:51;;;;;;;0.00;0.00;;;;;;;;;;5121024;28;20205;-79
2023/05/22 10:20:20;;;;;;;0.00;0.00;;;;;;;;;;5121468;28;20578;-79
2023/05/22 10:22:49;;;;;;;0.00;0.00;;;;;;;;;;5120806;27;20224;-79
2023/05/22 10:25:18;;;;;;;0.00;0.00;;;;;;;;;;5120446;28;20555;-80
2023/05/22 10:27:46;;;;;;;0.00;0.00;;;;;;;;;;5121383;28;20212;-79
2023/05/22 10:30:20;;;;;;;0.00;0.00;;;;;;;;;;5118989;28;20201;-79
2023/05/22 10:32:56;;;;;;;0.00;0.00;;;;;;;;;;5121557;28;20201;-79
2023/05/22 10:35:30;;;;;;;0.00;0.00;;;;;;;;;;5121390;28;20227;-79
2023/05/22 10:38:04;;;;;;;0.00;0.00;;;;;;;;;;5120794;28;20221;-80
2023/05/22 10:40:34;;;;;;;0.00;0.00;;;;;;;;;;5122076;28;20192;-80
2023/05/22 10:43:04;;;;;;;0.00;0.00;;;;;;;;;;5120985;28;20303;-80
2023/05/22 10:45:32;;;;;;;0.00;0.00;;;;;;;;;;5120654;28;20229;-80
2023/05/22 10:48:06;;;;;;;0.00;0.00;;;;;;;;;;5121158;28;20207;-80
2023/05/22 10:50:35;;;;;;;0.00;0.00;;;;;;;;;;5120253;28;20193;-79
2023/05/22 10:53:20;;;;;;;0.00;0.00;;;;;;;;;;5119616;28;20209;-79
2023/05/22 10:55:49;;;;;;;0.00;0.00;;;;;;;;;;5120556;28;20279;-80
2023/05/22 10:58:17;;;;;;;0.00;0.00;;;;;;;;;;5120377;28;20205;-79
2023/05/22 11:00:46;;;;;;;0.00;0.00;;;;;;;;;;5120421;27;20291;-80
2023/05/22 11:03:16;;;;;;;0.00;0.00;;;;;;;;;;5119044;28;20213;-78
2023/05/22 11:05:52;;;;;;;0.00;0.00;;;;;;;;;;5120623;28;20196;-79
2023/05/22 11:08:38;;;;;;;0.00;0.00;;;;;;;;;;5120694;28;20186;-79
2023/05/22 11:11:13;;;;;;;0.00;0.00;;;;;;;;;;5121012;28;20263;-78
2023/05/22 11:13:42;;;;;;;0.00;0.00;;;;;;;;;;5120469;28;20232;-79
2023/05/22 11:16:11;;;;;;;0.00;0.00;;;;;;;;;;5120454;28;20201;-79
2023/05/22 11:18:41;;;;;;;0.00;0.00;;;;;;;;;;5120331;28;20333;-79
2023/05/22 11:21:12;;;;;;;0.00;0.00;;;;;;;;;;5120765;28;20197;-76
2023/05/22 11:23:41;;;;;;;0.00;0.00;;;;;;;;;;5120907;28;20221;-79
2023/05/22 11:26:21;;;;;;;0.00;0.00;;;;;;;;;;5120876;28;20661;-79
2023/05/22 11:28:50;;;;;;;0.00;0.00;;;;;;;;;;5120998;27;20205;-79
2023/05/22 11:31:19;;;;;;;0.00;0.00;;;;;;;;;;5120058;28;20212;-79
2023/05/22 11:33:49;;;;;;;0.00;0.00;;;;;;;;;;5111287;28;20222;-79
2023/05/22 11:36:17;;;;;;;0.00;0.00;;;;;;;;;;5099601;28;20220;-79
2023/05/22 11:38:46;;;;;;;0.00;0.00;;;;;;;;;;5100251;28;20182;-79
2023/05/22 11:41:15;;;;;;;0.00;0.00;;;;;;;;;;5100153;28;20267;-78
2023/05/22 11:43:44;;;;;;;0.00;0.00;;;;;;;;;;5099871;28;20230;-79
2023/05/22 11:46:14;;;;;;;0.00;0.00;;;;;;;;;;5099297;28;20193;-79
2023/05/22 11:48:42;;;;;;;0.00;0.00;;;;;;;;;;5099094;28;20206;-80
2023/05/22 11:51:13;;;;;;;0.00;0.00;;;;;;;;;;5098946;28;20571;-77
2023/05/22 11:53:42;;;;;;;0.00;0.00;;;;;;;;;;5098810;28;20607;-79
2023/05/22 11:56:10;;;;;;;0.00;0.00;;;;;;;;;;5099253;28;20212;-79
2023/05/22 11:58:38;;;;;;;0.00;0.00;;;;;;;;;;5098989;28;20197;-79
2023/05/22 12:01:07;;;;;;;0.00;0.00;;;;;;;;;;5099460;28;20211;-78
2023/05/22 12:03:36;;;;;;;0.00;0.00;;;;;;;;;;5099145;28;20234;-79
2023/05/22 12:06:05;;;;;;;0.00;0.00;;;;;;;;;;5098342;28;20202;-78
2023/05/22 12:08:35;;;;;;;0.00;0.00;;;;;;;;;;5099546;28;20190;-79
2023/05/22 12:11:06;;;;;;;0.00;0.00;;;;;;;;;;5099287;28;20208;-79
2023/05/22 12:13:34;;;;;;;0.00;0.00;;;;;;;;;;5099422;28;20291;-79
2023/05/22 12:16:17;;;;;;;0.00;0.00;;;;;;;;;;5099204;28;20562;-79
2023/05/22 12:18:46;;;;;;;0.00;0.00;;;;;;;;;;5099276;28;20560;-79
2023/05/22 12:21:15;;;;;;;0.00;0.00;;;;;;;;;;5097688;28;20202;-79
2023/05/22 12:23:51;;;;;;;0.00;0.00;;;;;;;;;;5098620;28;20724;-80
2023/05/22 12:26:20;;;;;;;0.00;0.00;;;;;;;;;;5098444;27;20205;-79
2023/05/22 12:28:48;;;;;;;0.00;0.00;;;;;;;;;;5098743;28;20201;-79
2023/05/22 12:31:21;;;;;;;0.00;0.00;;;;;;;;;;5096977;28;20563;-79
2023/05/22 12:33:50;;;;;;;0.00;0.00;;;;;;;;;;5097740;28;20713;-79
2023/05/22 12:36:18;;;;;;;0.00;0.00;;;;;;;;;;5097843;28;20209;-78
2023/05/22 12:38:47;;;;;;;0.00;0.00;;;;;;;;;;5096084;28;20240;-79
2023/05/22 12:41:18;;;;;;;0.00;0.00;;;;;;;;;;5097787;27;20605;-78
2023/05/22 12:43:46;;;;;;;0.00;0.00;;;;;;;;;;5097290;28;20716;-79
2023/05/22 12:46:15;;;;;;;0.00;0.00;;;;;;;;;;5098174;28;20249;-80
2023/05/22 12:48:43;;;;;;;0.00;0.00;;;;;;;;;;5097154;28;20275;-79
2023/05/22 12:51:12;;;;;;;0.00;0.00;;;;;;;;;;5097179;28;20201;-79
2023/05/22 12:53:40;;;;;;;0.00;0.00;;;;;;;;;;5100908;28;20204;-79
2023/05/22 12:56:09;;;;;;;0.00;0.00;;;;;;;;;;5118616;28;20201;-79
2023/05/22 12:58:39;;;;;;;0.00;0.00;;;;;;;;;;5118424;28;20212;-80
2023/05/22 13:01:07;;;;;;;0.00;0.00;;;;;;;;;;5118071;28;20649;-79
2023/05/22 13:03:36;;;;;;;0.00;0.00;;;;;;;;;;5117132;28;20233;-78
2023/05/22 13:06:04;;;;;;;0.00;0.00;;;;;;;;;;5118315;28;20205;-79
2023/05/22 13:08:33;;;;;;;0.00;0.00;;;;;;;;;;5117469;28;20546;-79
2023/05/22 13:11:01;;;;;;;0.00;0.00;;;;;;;;;;5117763;28;20200;-79
2023/05/22 13:13:30;;;;;;;0.00;0.00;;;;;;;;;;5117632;28;20197;-78
2023/05/22 13:16:00;;;;;;;0.00;0.00;;;;;;;;;;5097267;28;20208;-78
2023/05/22 13:18:28;;;;;;;0.00;0.00;;;;;;;;;;5101535;28;20273;-78
2023/05/22 13:20:58;;;;;;;0.00;0.00;;;;;;;;;;5104975;28;20204;-79
2023/05/22 13:23:27;;;;;;;0.00;0.00;;;;;;;;;;5097279;28;20224;-79
2023/05/22 13:25:56;;;;;;;0.00;0.00;;;;;;;;;;5096192;28;20202;-77
2023/05/22 13:28:24;;;;;;;0.00;0.00;;;;;;;;;;5092918;28;20271;-76
2023/05/22 13:30:52;;;;;;;0.00;0.00;;;;;;;;;;5093699;28;20202;-77
2023/05/22 13:33:23;;;;;;;0.00;0.00;;;;;;;;;;5097792;28;20546;-78
2023/05/22 13:35:51;;;;;;;0.00;0.00;;;;;;;;;;5098984;28;20615;-78
2023/05/22 13:38:20;;;;;;;0.00;0.00;;;;;;;;;;5098515;28;20301;-77
2023/05/22 13:40:48;;;;;;;0.00;0.00;;;;;;;;;;5098538;28;20202;-77
2023/05/22 13:43:17;;;;;;;0.00;0.00;;;;;;;;;;5097725;28;20214;-77
2023/05/22 13:45:45;;;;;;;0.00;0.00;;;;;;;;;;5097717;28;20214;-76
2023/05/22 13:48:14;;;;;;;0.00;0.00;;;;;;;;;;5103340;28;20212;-76
2023/05/22 13:50:44;;;;;;;0.00;0.00;;;;;;;;;;5118675;28;20197;-77
2023/05/22 13:53:13;;;;;;;0.00;0.00;;;;;;;;;;5114288;28;20190;-77
2023/05/22 13:55:41;;;;;;;0.00;0.00;;;;;;;;;;5118866;28;20205;-77
2023/05/22 13:58:09;;;;;;;0.00;0.00;;;;;;;;;;5119071;28;20209;-77
2023/05/22 14:00:38;;;;;;;0.00;0.00;;;;;;;;;;5118117;28;20208;-77
2023/05/22 14:03:06;;;;;;;0.00;0.00;;;;;;;;;;5118559;28;20217;-77
2023/05/22 14:05:35;;;;;;;0.00;0.00;;;;;;;;;;5118460;28;20221;-77
2023/05/22 14:08:05;;;;;;;0.00;0.00;;;;;;;;;;5118410;28;20687;-77
2023/05/22 14:10:34;;;;;;;0.00;0.00;;;;;;;;;;5100323;28;20198;-77
2023/05/22 14:13:03;;;;;;;0.00;0.00;;;;;;;;;;5097919;28;20280;-77
2023/05/22 14:15:31;;;;;;;0.00;0.00;;;;;;;;;;5113402;28;20580;-77
2023/05/22 14:18:00;;;;;;;0.00;0.00;;;;;;;;;;5102882;28;20619;-77
2023/05/22 14:20:28;;;;;;;0.00;0.00;;;;;;;;;;5102301;28;20198;-79
2023/05/22 14:22:57;;;;;;;0.00;0.00;;;;;;;;;;5102282;28;20210;-80
2023/05/22 14:25:27;;;;;;;0.00;0.00;;;;;;;;;;5102934;28;20222;-80
2023/05/22 14:27:56;;;;;;;0.00;0.00;;;;;;;;;;5102659;28;20555;-80
2023/05/22 14:30:24;;;;;;;0.00;0.00;;;;;;;;;;5102466;28;20663;-80
2023/05/22 14:32:53;;;;;;;0.00;0.00;;;;;;;;;;5101522;28;20277;-80
2023/05/22 14:35:21;;;;;;;0.00;0.00;;;;;;;;;;5100876;28;20279;-80
2023/05/22 14:37:50;;;;;;;0.00;0.00;;;;;;;;;;5102314;28;20243;-80
2023/05/22 14:40:19;;;;;;;0.00;0.00;;;;;;;;;;5117051;28;20204;-80
2023/05/22 14:42:49;;;;;;;0.00;0.00;;;;;;;;;;5114558;28;20207;-80
2023/05/22 14:45:24;;;;;;;0.00;0.00;;;;;;;;;;5100296;28;20296;-78
2023/05/22 14:47:52;;;;;;;0.00;0.00;;;;;;;;;;5104043;28;20205;-78
2023/05/22 14:50:21;;;;;;;0.00;0.00;;;;;;;;;;5114873;28;20201;-77
2023/05/22 14:52:50;;;;;;;0.00;0.00;;;;;;;;;;5112248;28;20677;-77
2023/05/22 14:55:19;;;;;;;0.00;0.00;;;;;;;;;;5111453;28;20217;-77
2023/05/22 14:57:49;;;;;;;0.00;0.00;;;;;;;;;;5107403;28;20201;-77